createdAt,value
2018-03-29T00:00:17.581Z,97.20
2018-03-29T00:02:45.100Z,97.40
2018-03-29T00:05:12.574Z,97.30
2018-03-29T00:07:40.045Z,97.10
2018-03-29T00:10:07.548Z,96.50
2018-03-29T00:12:35.010Z,96.70
2018-03-29T00:15:02.484Z,96.20
2018-03-29T00:17:29.952Z,96.50
2018-03-29T00:19:57.419Z,96.50
2018-03-29T00:22:24.893Z,96.30
2018-03-29T00:24:52.383Z,96.70
2018-03-29T00:27:20.626Z,96.80
2018-03-29T00:29:48.090Z,96.80
2018-03-29T00:32:15.562Z,97.00
2018-03-29T00:34:43.058Z,97.10
2018-03-29T00:37:10.533Z,97.20
2018-03-29T00:39:38.010Z,97.40
2018-03-29T00:42:05.485Z,97.40
2018-03-29T00:44:32.968Z,97.50
2018-03-29T00:47:00.459Z,98.10
2018-03-29T00:49:27.926Z,97.80
2018-03-29T00:51:55.429Z,97.90
2018-03-29T00:54:23.661Z,98.30
2018-03-29T00:56:51.142Z,98.30
2018-03-29T00:59:18.632Z,98.60
2018-03-29T01:01:46.912Z,98.70
2018-03-29T01:04:14.400Z,98.80
2018-03-29T01:06:41.877Z,98.90
2018-03-29T01:09:09.358Z,99.10
2018-03-29T01:11:37.616Z,99.20
2018-03-29T01:14:05.100Z,99.10
2018-03-29T01:16:32.591Z,99.20
2018-03-29T01:19:00.065Z,99.40
2018-03-29T01:21:27.529Z,99.60
2018-03-29T01:23:55.026Z,99.60
2018-03-29T01:26:23.265Z,99.70
2018-03-29T01:28:50.822Z,99.60
2018-03-29T01:31:18.296Z,99.80
2018-03-29T01:33:45.777Z,99.90
2018-03-29T01:36:13.256Z,99.90
2018-03-29T01:38:40.732Z,99.90
2018-03-29T01:41:08.228Z,99.90
2018-03-29T01:43:35.716Z,99.90
2018-03-29T01:46:03.198Z,99.90
2018-03-29T01:48:30.708Z,99.90
2018-03-29T01:50:58.180Z,99.90
2018-03-29T01:53:26.491Z,99.90
2018-03-29T01:55:53.950Z,99.90
2018-03-29T01:58:21.429Z,99.90
2018-03-29T02:00:48.959Z,99.90
2018-03-29T02:03:16.440Z,99.90
2018-03-29T02:05:43.929Z,99.90
2018-03-29T02:08:11.536Z,99.90
2018-03-29T02:10:39.036Z,99.90
2018-03-29T02:13:06.523Z,99.90
2018-03-29T02:15:34.788Z,99.90
2018-03-29T02:18:03.052Z,99.90
2018-03-29T02:20:30.530Z,99.90
2018-03-29T02:22:58.019Z,99.90
2018-03-29T02:25:25.516Z,99.90
2018-03-29T02:27:53.022Z,99.90
2018-03-29T02:30:21.427Z,99.90
2018-03-29T02:32:48.885Z,99.90
2018-03-29T02:35:16.433Z,99.90
2018-03-29T02:37:43.929Z,99.90
2018-03-29T02:40:11.419Z,99.90
2018-03-29T02:42:38.950Z,99.90
2018-03-29T02:45:06.426Z,99.90
2018-03-29T02:47:34.667Z,99.90
2018-03-29T02:50:02.175Z,99.90
2018-03-29T02:52:29.712Z,99.90
2018-03-29T02:54:57.967Z,99.90
2018-03-29T02:57:25.453Z,99.90
2018-03-29T02:59:53.711Z,99.90
2018-03-29T03:02:21.202Z,99.90
2018-03-29T03:07:22.495Z,99.90
2018-03-29T03:09:49.989Z,99.90
2018-03-29T03:12:17.462Z,99.90
2018-03-29T03:14:45.740Z,99.90
2018-03-29T03:17:13.975Z,99.90
2018-03-29T03:19:41.449Z,99.90
2018-03-29T03:22:08.911Z,99.90
2018-03-29T03:24:36.402Z,99.90
2018-03-29T03:27:03.921Z,99.90
2018-03-29T03:29:31.389Z,99.90
2018-03-29T03:31:58.853Z,99.90
2018-03-29T03:34:26.324Z,99.90
2018-03-29T03:39:28.367Z,99.90
2018-03-29T03:41:55.848Z,99.90
2018-03-29T03:44:24.112Z,99.90
2018-03-29T03:46:51.589Z,99.90
2018-03-29T03:49:19.063Z,99.90
2018-03-29T03:51:46.560Z,99.60
2018-03-29T03:54:14.041Z,99.10
2018-03-29T03:56:41.566Z,99.20
2018-03-29T03:59:09.076Z,99.10
2018-03-29T04:01:36.547Z,99.20
2018-03-29T04:04:04.024Z,99.30
2018-03-29T04:06:31.502Z,99.40
2018-03-29T04:08:59.744Z,99.70
2018-03-29T04:11:27.212Z,99.60
2018-03-29T04:13:54.712Z,99.60
2018-03-29T04:16:22.173Z,99.80
2018-03-29T04:18:49.641Z,99.90
2018-03-29T04:21:17.896Z,99.90
2018-03-29T04:23:45.391Z,99.90
2018-03-29T04:26:12.870Z,99.90
2018-03-29T04:28:40.386Z,99.90
2018-03-29T04:31:08.640Z,99.90
2018-03-29T04:33:36.127Z,99.90
2018-03-29T04:36:04.382Z,99.90
2018-03-29T04:38:31.863Z,99.90
2018-03-29T04:41:00.122Z,99.90
2018-03-29T04:43:27.614Z,99.90
2018-03-29T04:45:55.073Z,99.80
2018-03-29T04:48:22.570Z,99.80
2018-03-29T04:50:50.057Z,99.90
2018-03-29T04:53:17.566Z,99.80
2018-03-29T04:55:45.028Z,99.90
2018-03-29T04:58:12.496Z,99.90
2018-03-29T05:00:39.970Z,99.90
2018-03-29T05:03:07.444Z,99.70
2018-03-29T05:05:35.695Z,99.80
2018-03-29T05:08:03.164Z,99.60
2018-03-29T05:10:30.676Z,99.60
2018-03-29T05:12:58.153Z,99.60
2018-03-29T05:15:25.622Z,99.50
2018-03-29T05:17:53.102Z,99.90
2018-03-29T05:20:21.363Z,99.50
2018-03-29T05:22:48.850Z,99.40
2018-03-29T05:25:17.115Z,99.40
2018-03-29T05:27:50.167Z,99.40
2018-03-29T05:30:17.670Z,99.60
2018-03-29T05:32:45.912Z,99.50
2018-03-29T05:35:13.402Z,99.40
2018-03-29T05:37:41.667Z,99.80
2018-03-29T05:40:09.153Z,99.40
2018-03-29T05:42:37.403Z,99.70
2018-03-29T05:45:04.871Z,99.30
2018-03-29T05:47:33.132Z,99.00
2018-03-29T05:50:01.419Z,99.00
2018-03-29T05:52:29.674Z,98.70
2018-03-29T05:54:57.145Z,98.60
2018-03-29T05:57:25.413Z,98.30
2018-03-29T05:59:57.700Z,98.20
2018-03-29T06:02:25.187Z,98.30
2018-03-29T06:04:52.662Z,98.10
2018-03-29T06:07:20.116Z,98.00
2018-03-29T06:09:47.666Z,97.80
2018-03-29T06:12:15.887Z,97.80
2018-03-29T06:14:45.175Z,97.70
2018-03-29T06:17:18.388Z,97.50
2018-03-29T06:19:46.643Z,97.50
2018-03-29T06:22:14.126Z,97.30
2018-03-29T06:24:42.372Z,96.90
2018-03-29T06:27:09.860Z,96.90
2018-03-29T06:29:38.112Z,96.90
2018-03-29T06:32:05.607Z,96.80
2018-03-29T06:34:33.125Z,96.50
2018-03-29T06:37:00.597Z,96.80
2018-03-29T06:39:28.091Z,96.60
2018-03-29T06:41:55.556Z,96.70
2018-03-29T06:44:23.046Z,96.60
2018-03-29T06:46:50.523Z,96.70
2018-03-29T06:49:18.024Z,96.40
2018-03-29T06:51:45.558Z,96.50
2018-03-29T06:54:13.036Z,96.50
2018-03-29T06:56:40.516Z,96.50
2018-03-29T06:59:08.003Z,96.60
2018-03-29T07:01:35.487Z,96.40
2018-03-29T07:04:03.743Z,95.30
2018-03-29T07:06:31.238Z,95.20
2018-03-29T07:08:58.751Z,94.70
2018-03-29T07:11:26.222Z,95.00
2018-03-29T07:13:53.719Z,95.30
2018-03-29T07:16:21.209Z,95.40
2018-03-29T07:18:48.697Z,96.20
2018-03-29T07:21:16.193Z,96.00
2018-03-29T07:23:43.689Z,95.90
2018-03-29T07:26:11.179Z,96.00
2018-03-29T07:28:39.446Z,96.10
2018-03-29T07:31:06.893Z,96.00
2018-03-29T07:33:34.390Z,96.20
2018-03-29T07:36:01.922Z,96.30
2018-03-29T07:38:29.405Z,96.20
2018-03-29T07:40:56.921Z,96.30
2018-03-29T07:43:24.398Z,95.30
2018-03-29T07:45:51.896Z,94.00
2018-03-29T07:48:19.366Z,93.40
2018-03-29T07:50:46.862Z,93.90
2018-03-29T07:53:14.372Z,93.90
2018-03-29T07:55:41.897Z,93.90
2018-03-29T07:58:09.413Z,93.30
2018-03-29T08:00:36.919Z,92.40
2018-03-29T08:03:05.174Z,92.60
2018-03-29T08:05:33.445Z,92.30
2018-03-29T08:08:00.926Z,92.30
2018-03-29T08:10:29.187Z,91.70
2018-03-29T08:12:57.426Z,91.40
2018-03-29T08:15:24.899Z,91.30
2018-03-29T08:17:52.397Z,90.80
2018-03-29T08:20:19.883Z,89.40
2018-03-29T08:22:47.388Z,88.10
2018-03-29T08:25:14.858Z,86.60
2018-03-29T08:27:42.343Z,87.50
2018-03-29T08:30:09.836Z,87.90
2018-03-29T08:32:37.310Z,86.10
2018-03-29T08:35:04.790Z,86.70
2018-03-29T08:37:33.053Z,86.00
2018-03-29T08:40:01.291Z,85.40
2018-03-29T08:42:28.768Z,85.20
2018-03-29T08:44:56.233Z,85.20
2018-03-29T08:47:23.714Z,84.60
2018-03-29T08:49:51.946Z,85.20
2018-03-29T08:52:19.414Z,85.10
2018-03-29T08:54:46.927Z,84.30
2018-03-29T08:57:14.410Z,83.60
2018-03-29T08:59:42.674Z,82.50
2018-03-29T09:02:10.149Z,82.50
2018-03-29T09:04:37.605Z,80.80
2018-03-29T09:07:05.113Z,79.30
2018-03-29T09:09:35.663Z,78.60
2018-03-29T09:12:03.160Z,79.70
2018-03-29T09:14:30.631Z,82.10
2018-03-29T09:16:58.078Z,81.90
2018-03-29T09:19:25.583Z,82.00
2018-03-29T09:21:53.812Z,84.40
2018-03-29T09:24:21.322Z,84.30
2018-03-29T09:26:48.805Z,86.60
2018-03-29T09:29:16.293Z,86.80
2018-03-29T09:31:43.795Z,87.00
2018-03-29T09:34:11.276Z,87.00
2018-03-29T09:36:38.768Z,86.60
2018-03-29T09:39:06.218Z,85.80
2018-03-29T09:41:33.724Z,85.50
2018-03-29T09:44:01.957Z,82.10
2018-03-29T09:46:30.195Z,78.30
2018-03-29T09:48:57.692Z,78.30
2018-03-29T09:51:25.166Z,79.20
2018-03-29T09:53:52.667Z,78.60
2018-03-29T09:56:20.210Z,80.00
2018-03-29T09:58:47.709Z,80.20
2018-03-29T10:01:15.217Z,81.30
2018-03-29T10:03:57.883Z,81.20
2018-03-29T10:06:27.539Z,81.40
2018-03-29T10:08:55.386Z,82.00
2018-03-29T10:11:23.053Z,84.20
2018-03-29T10:13:50.547Z,83.50
2018-03-29T10:16:18.033Z,83.30
2018-03-29T10:18:45.518Z,84.20
2018-03-29T10:21:13.030Z,85.00
2018-03-29T10:23:40.530Z,85.10
2018-03-29T10:26:08.789Z,86.00
2018-03-29T10:28:36.278Z,85.70
2018-03-29T10:31:03.804Z,86.80
2018-03-29T10:33:31.284Z,87.00
2018-03-29T10:35:59.549Z,85.70
2018-03-29T10:38:27.823Z,85.40
2018-03-29T10:40:56.055Z,85.30
2018-03-29T10:43:23.560Z,85.10
2018-03-29T10:45:51.052Z,84.50
2018-03-29T10:48:18.540Z,83.50
2018-03-29T10:50:46.030Z,84.00
2018-03-29T10:53:14.279Z,80.70
2018-03-29T10:55:41.781Z,80.60
2018-03-29T10:58:09.255Z,80.10
2018-03-29T11:00:36.735Z,81.30
2018-03-29T11:03:04.223Z,77.90
2018-03-29T11:05:32.019Z,80.20
2018-03-29T11:07:59.511Z,84.20
2018-03-29T11:10:27.004Z,89.20
2018-03-29T11:12:54.472Z,90.60
2018-03-29T11:15:22.752Z,91.20
2018-03-29T11:17:51.014Z,90.30
2018-03-29T11:20:18.504Z,90.20
2018-03-29T11:22:45.965Z,90.00
2018-03-29T11:25:13.462Z,87.30
2018-03-29T11:27:40.967Z,87.80
2018-03-29T11:30:08.449Z,86.70
2018-03-29T11:32:35.938Z,82.60
2018-03-29T11:35:03.435Z,81.50
2018-03-29T11:37:31.687Z,83.30
2018-03-29T11:39:59.232Z,83.30
2018-03-29T11:42:27.513Z,84.20
2018-03-29T11:44:55.077Z,83.30
2018-03-29T11:47:22.535Z,84.00
2018-03-29T11:49:50.047Z,84.50
2018-03-29T11:52:18.005Z,83.80
2018-03-29T11:54:45.511Z,86.40
2018-03-29T11:57:12.985Z,88.90
2018-03-29T11:59:40.468Z,90.00
2018-03-29T12:02:07.940Z,90.10
2018-03-29T12:04:35.420Z,90.50
2018-03-29T12:07:02.898Z,91.50
2018-03-29T12:09:30.396Z,91.80
2018-03-29T12:11:58.650Z,92.50
2018-03-29T12:14:26.153Z,92.40
2018-03-29T12:16:54.411Z,93.20
2018-03-29T12:19:21.889Z,93.10
2018-03-29T12:21:49.376Z,93.40
2018-03-29T12:24:16.859Z,93.10
2018-03-29T12:26:44.883Z,93.10
2018-03-29T12:29:12.371Z,92.00
2018-03-29T12:31:39.845Z,91.70
2018-03-29T12:34:07.348Z,89.40
2018-03-29T12:36:34.822Z,87.40
2018-03-29T12:39:02.303Z,87.80
2018-03-29T12:41:29.812Z,83.50
2018-03-29T12:43:57.276Z,79.20
2018-03-29T12:46:24.908Z,78.40
2018-03-29T12:48:52.369Z,79.70
2018-03-29T12:51:19.840Z,81.20
2018-03-29T12:53:47.316Z,84.20
2018-03-29T12:56:21.637Z,83.10
2018-03-29T12:58:49.152Z,80.20
2018-03-29T13:01:16.627Z,80.00
2018-03-29T13:03:44.091Z,82.60
2018-03-29T13:06:11.572Z,83.90
2018-03-29T13:08:39.065Z,81.60
2018-03-29T13:11:06.539Z,76.50
2018-03-29T13:13:34.801Z,75.80
2018-03-29T13:16:02.269Z,75.70
2018-03-29T13:18:29.736Z,72.60
2018-03-29T13:20:57.207Z,71.10
2018-03-29T13:23:24.682Z,69.30
2018-03-29T13:25:52.159Z,68.80
2018-03-29T13:28:19.660Z,68.00
2018-03-29T13:30:47.943Z,58.00
2018-03-29T13:33:15.362Z,57.90
2018-03-29T13:35:42.888Z,59.80
2018-03-29T13:38:10.388Z,66.90
2018-03-29T13:40:37.891Z,63.80
2018-03-29T13:43:05.385Z,64.60
2018-03-29T13:45:32.862Z,67.40
2018-03-29T13:48:00.313Z,70.20
2018-03-29T13:50:27.810Z,71.50
2018-03-29T13:52:55.292Z,72.20
2018-03-29T13:55:22.759Z,70.50
2018-03-29T13:57:50.239Z,72.10
2018-03-29T14:00:17.739Z,72.40
2018-03-29T14:02:45.206Z,72.40
2018-03-29T14:05:12.697Z,73.90
2018-03-29T14:07:40.204Z,73.10
2018-03-29T14:10:07.672Z,73.90
2018-03-29T14:12:35.165Z,73.10
2018-03-29T14:15:02.635Z,74.20
2018-03-29T14:17:30.126Z,75.10
2018-03-29T14:19:57.649Z,74.20
2018-03-29T14:22:25.129Z,74.80
2018-03-29T14:24:53.378Z,74.40
2018-03-29T14:27:20.877Z,74.30
2018-03-29T14:29:55.616Z,75.40
2018-03-29T14:32:23.068Z,75.40
2018-03-29T14:34:50.551Z,75.90
2018-03-29T14:37:18.021Z,76.00
2018-03-29T14:39:45.501Z,75.70
2018-03-29T14:42:12.983Z,71.80
2018-03-29T14:44:40.487Z,64.20
2018-03-29T14:47:08.111Z,57.80
2018-03-29T14:49:35.595Z,57.40
2018-03-29T14:52:03.092Z,54.00
2018-03-29T14:54:30.579Z,47.00
2018-03-29T14:56:58.833Z,51.80
2018-03-29T14:59:26.330Z,51.70
2018-03-29T15:01:53.804Z,49.30
2018-03-29T15:04:21.310Z,48.90
2018-03-29T15:06:48.772Z,48.90
2018-03-29T15:09:17.027Z,47.40
2018-03-29T15:11:44.542Z,46.80
2018-03-29T15:14:12.788Z,46.60
2018-03-29T15:16:40.269Z,46.60
2018-03-29T15:19:07.718Z,47.20
2018-03-29T15:21:35.223Z,47.90
2018-03-29T15:24:02.717Z,49.80
2018-03-29T15:26:30.240Z,49.40
2018-03-29T15:28:57.742Z,51.30
2018-03-29T15:31:25.285Z,52.90
2018-03-29T15:33:52.754Z,50.90
2018-03-29T15:36:21.006Z,50.40
2018-03-29T15:38:48.512Z,50.20
2018-03-29T15:41:16.000Z,53.60
2018-03-29T15:43:43.467Z,59.80
2018-03-29T15:46:10.952Z,65.40
2018-03-29T15:48:38.416Z,67.30
2018-03-29T15:51:05.894Z,67.50
2018-03-29T15:53:33.384Z,64.00
2018-03-29T15:56:00.874Z,59.70
2018-03-29T15:58:28.355Z,55.20
2018-03-29T16:00:56.607Z,50.10
2018-03-29T16:03:24.086Z,50.00
2018-03-29T16:05:52.346Z,48.70
2018-03-29T16:08:20.581Z,46.70
2018-03-29T16:10:48.074Z,46.70
2018-03-29T16:13:15.565Z,49.20
2018-03-29T16:15:43.029Z,46.00
2018-03-29T16:18:10.501Z,45.50
2018-03-29T16:20:37.977Z,48.10
2018-03-29T16:23:05.435Z,48.80
2018-03-29T16:25:32.960Z,46.30
2018-03-29T16:28:00.436Z,46.00
2018-03-29T16:30:27.904Z,46.00
2018-03-29T16:32:55.404Z,44.40
2018-03-29T16:35:22.879Z,43.70
2018-03-29T16:37:50.393Z,44.40
2018-03-29T16:40:18.655Z,46.40
2018-03-29T16:42:46.120Z,46.40
2018-03-29T16:45:13.597Z,47.50
2018-03-29T16:47:41.109Z,48.60
2018-03-29T16:50:08.582Z,49.80
2018-03-29T16:52:36.073Z,50.90
2018-03-29T16:55:04.380Z,51.00
2018-03-29T16:57:31.860Z,52.40
2018-03-29T16:59:59.363Z,54.00
2018-03-29T17:02:26.832Z,54.80
2018-03-29T17:04:55.087Z,56.20
2018-03-29T17:07:22.564Z,56.10
2018-03-29T17:09:50.814Z,61.50
2018-03-29T17:12:18.291Z,61.50
2018-03-29T17:14:46.545Z,68.30
2018-03-29T17:17:14.035Z,68.20
2018-03-29T17:19:42.270Z,75.60
2018-03-29T17:22:10.632Z,75.40
2018-03-29T17:24:38.109Z,77.40
2018-03-29T17:27:05.595Z,78.10
2018-03-29T17:29:33.092Z,78.50
2018-03-29T17:32:00.541Z,79.00
2018-03-29T17:34:28.044Z,79.40
2018-03-29T17:36:55.512Z,80.20
2018-03-29T17:39:22.986Z,81.10
2018-03-29T17:41:51.245Z,82.20
2018-03-29T17:44:18.712Z,82.90
2018-03-29T17:46:46.958Z,83.60
2018-03-29T17:49:14.415Z,83.60
2018-03-29T17:51:41.891Z,84.40
2018-03-29T17:54:09.400Z,84.90
2018-03-29T17:56:36.864Z,85.00
2018-03-29T17:59:04.347Z,85.40
2018-03-29T18:01:31.825Z,85.50
2018-03-29T18:03:59.280Z,85.40
2018-03-29T18:06:27.542Z,85.80
2018-03-29T18:08:55.032Z,85.80
2018-03-29T18:11:23.281Z,86.80
2018-03-29T18:13:50.758Z,86.90
2018-03-29T18:16:19.023Z,87.50
2018-03-29T18:18:47.325Z,87.30
2018-03-29T18:21:15.639Z,87.20
2018-03-29T18:23:43.106Z,87.20
2018-03-29T18:26:11.671Z,87.20
2018-03-29T18:28:39.168Z,87.40
2018-03-29T18:31:06.684Z,87.80
2018-03-29T18:33:34.270Z,88.00
2018-03-29T18:36:02.566Z,88.00
2018-03-29T18:38:30.377Z,88.00
2018-03-29T18:40:57.849Z,88.10
2018-03-29T18:43:25.377Z,88.20
2018-03-29T18:45:55.805Z,88.50
2018-03-29T18:48:23.292Z,88.60
2018-03-29T18:50:50.779Z,88.60
2018-03-29T18:53:18.273Z,88.60
2018-03-29T18:55:45.775Z,88.50
2018-03-29T18:58:13.685Z,88.40
2018-03-29T19:00:41.178Z,88.60
2018-03-29T19:03:08.688Z,88.80
2018-03-29T19:05:37.385Z,89.20
2018-03-29T19:08:04.871Z,89.20
2018-03-29T19:10:32.373Z,89.50
2018-03-29T19:13:01.589Z,90.00
2018-03-29T19:15:29.892Z,90.60
2018-03-29T19:17:57.443Z,90.30
2018-03-29T19:20:25.699Z,90.40
2018-03-29T19:22:53.201Z,90.40
2018-03-29T19:25:20.727Z,90.30
2018-03-29T19:27:48.988Z,90.30
2018-03-29T19:30:16.456Z,90.30
2018-03-29T19:32:44.705Z,90.20
2018-03-29T19:35:12.203Z,90.20
2018-03-29T19:37:40.440Z,90.30
2018-03-29T19:40:08.183Z,90.30
2018-03-29T19:42:35.702Z,90.40
2018-03-29T19:45:03.160Z,90.60
2018-03-29T19:47:30.647Z,90.50
2018-03-29T19:49:58.123Z,90.90
2018-03-29T19:52:26.425Z,91.90
2018-03-29T19:54:54.746Z,92.20
2018-03-29T19:57:22.276Z,92.20
2018-03-29T19:59:50.614Z,92.80
2018-03-29T20:02:18.123Z,92.70
2018-03-29T20:04:46.378Z,93.60
2018-03-29T20:07:13.859Z,93.60
2018-03-29T20:09:41.341Z,94.20
2018-03-29T20:12:08.865Z,94.20
2018-03-29T20:14:36.327Z,94.40
2018-03-29T20:17:11.593Z,94.70
2018-03-29T20:19:39.159Z,94.60
2018-03-29T20:22:06.631Z,94.60
2018-03-29T20:24:34.133Z,94.70
2018-03-29T20:27:02.398Z,94.70
2018-03-29T20:29:29.914Z,94.70
2018-03-29T20:31:57.394Z,94.60
2018-03-29T20:34:24.870Z,94.70
2018-03-29T20:36:52.373Z,94.90
2018-03-29T20:39:19.864Z,95.10
2018-03-29T20:41:47.389Z,95.00
2018-03-29T20:44:14.865Z,94.90
2018-03-29T20:46:42.374Z,95.00
2018-03-29T20:49:10.629Z,95.60
2018-03-29T20:51:38.126Z,95.60
2018-03-29T20:54:05.619Z,96.00
2018-03-29T20:56:33.752Z,95.80
2018-03-29T20:59:01.206Z,95.70
2018-03-29T21:01:28.703Z,95.80
2018-03-29T21:03:56.195Z,95.60
2018-03-29T21:06:23.668Z,95.20
2018-03-29T21:08:51.134Z,95.20
2018-03-29T21:11:18.633Z,95.50
2018-03-29T21:13:46.139Z,95.60
2018-03-29T21:16:20.621Z,95.60
2018-03-29T21:18:48.864Z,95.80
2018-03-29T21:21:16.326Z,95.70
2018-03-29T21:23:43.800Z,96.00
2018-03-29T21:26:11.312Z,96.30
2018-03-29T21:28:41.210Z,96.80
2018-03-29T21:31:08.722Z,96.80
2018-03-29T21:33:36.261Z,96.90
2018-03-29T21:36:03.739Z,96.90
2018-03-29T21:38:31.262Z,97.10
2018-03-29T21:40:58.756Z,97.00
2018-03-29T21:43:26.330Z,97.00
2018-03-29T21:45:53.840Z,97.00
2018-03-29T21:48:21.345Z,97.00
2018-03-29T21:50:48.887Z,97.00
2018-03-29T21:53:17.383Z,97.20
2018-03-29T21:55:44.869Z,97.20
2018-03-29T21:58:13.124Z,97.30
2018-03-29T22:00:40.610Z,97.20
2018-03-29T22:03:08.335Z,97.50
2018-03-29T22:05:48.474Z,97.70
2018-03-29T22:10:50.920Z,97.60
2018-03-29T22:13:18.456Z,97.50
2018-03-29T22:15:45.937Z,97.40
2018-03-29T22:18:13.704Z,97.50
2018-03-29T22:20:46.895Z,97.60
2018-03-29T22:23:14.455Z,97.80
2018-03-29T22:25:42.015Z,97.80
2018-03-29T22:28:09.909Z,97.80
2018-03-29T22:30:37.434Z,98.00
2018-03-29T22:33:05.764Z,98.10
2018-03-29T22:35:33.279Z,98.10
2018-03-29T22:38:00.836Z,98.10
2018-03-29T22:40:28.362Z,98.20
2018-03-29T22:42:55.868Z,98.50
2018-03-29T22:45:23.416Z,98.70
2018-03-29T22:47:50.922Z,98.80
2018-03-29T22:50:18.426Z,98.70
2018-03-29T22:52:46.975Z,98.60
2018-03-29T22:55:16.577Z,98.60
2018-03-29T22:57:47.331Z,98.50
2018-03-29T23:00:16.499Z,98.50
2018-03-29T23:02:48.052Z,98.30
2018-03-29T23:08:09.474Z,98.10
2018-03-29T23:10:37.807Z,98.20
2018-03-29T23:13:05.383Z,98.40
2018-03-29T23:15:38.311Z,98.60
2018-03-29T23:18:06.076Z,98.80
2018-03-29T23:23:10.115Z,99.10
2018-03-29T23:26:02.672Z,99.00
2018-03-29T23:42:53.954Z,99.20
2018-03-29T23:48:59.150Z,99.00
2018-03-29T23:57:21.564Z,99.20
2018-03-29T23:59:51.842Z,99.20
